Time;durP1;ratioP1;P1;durP2;ratioP2;P2;SDS_P1;SDS_P2;PMS_P1;PMS_P2;Temp;Humidity;BMP_temperature;BMP_pressure;BME280_temperature;BME280_humidity;BME280_pressure;Samples;Min_cycle;Max_cycle;Signal;HPM_P1;HPM_P2
2022/02/09 00:00:45;;;;;;;5.68;3.75;;;;;;;;;;5115384;28;20019;-72
2022/02/09 00:03:16;;;;;;;4.95;3.70;;;;;;;;;;5122849;27;20570;-72
2022/02/09 00:08:15;;;;;;;6.80;3.42;;;;;;;;;;5122957;27;20123;-72
2022/02/09 00:10:44;;;;;;;4.57;3.83;;;;;;;;;;5096894;28;20024;-72
2022/02/09 00:13:52;;;;;;;4.95;3.33;;;;;;;;;;5115376;28;20016;-72
2022/02/09 01:11:26;;;;;;;4.43;3.03;;;;;;;;;;5093531;28;20054;-71
2022/02/09 01:56:59;;;;;;;2.92;2.30;;;;;;;;;;5134043;27;20570;-71
2022/02/09 01:59:26;;;;;;;4.63;2.75;;;;;;;;;;5133993;27;20027;-71
2022/02/09 02:01:52;;;;;;;3.45;2.63;;;;;;;;;;5133763;27;20027;-70
2022/02/09 02:04:23;;;;;;;4.53;2.50;;;;;;;;;;5133215;27;20035;-70
2022/02/09 02:06:50;;;;;;;3.35;2.70;;;;;;;;;;5132605;27;20425;-70
2022/02/09 02:09:17;;;;;;;4.25;3.05;;;;;;;;;;5112754;28;20107;-70
2022/02/09 02:11:51;;;;;;;3.13;2.58;;;;;;;;;;5112419;28;20019;-70
2022/02/09 02:17:04;;;;;;;3.78;2.42;;;;;;;;;;5112714;28;20032;-70
2022/02/09 02:19:36;;;;;;;4.18;2.70;;;;;;;;;;5112728;28;20491;-70
2022/02/09 03:17:38;;;;;;;2.53;2.00;;;;;;;;;;5111762;28;20513;-70
2022/02/09 03:23:40;;;;;;;3.65;2.45;;;;;;;;;;5029537;28;20025;-70
2022/02/09 03:53:10;;;;;;;3.45;2.05;;;;;;;;;;5111670;28;20110;-70
2022/02/09 03:56:00;;;;;;;3.15;2.08;;;;;;;;;;5111413;28;20102;-70
2022/02/09 03:58:27;;;;;;;2.85;1.88;;;;;;;;;;5111845;28;20019;-70
2022/02/09 04:00:53;;;;;;;4.95;2.20;;;;;;;;;;5118929;28;20129;-70
2022/02/09 04:03:21;;;;;;;3.17;1.75;;;;;;;;;;5131873;27;20035;-70
2022/02/09 04:05:49;;;;;;;3.53;2.10;;;;;;;;;;5133800;27;20032;-70
2022/02/09 04:08:17;;;;;;;2.78;1.63;;;;;;;;;;5122887;27;20028;-71
2022/02/09 04:11:22;;;;;;;2.92;1.85;;;;;;;;;;5096871;28;20410;-70
2022/02/09 04:16:22;;;;;;;2.38;1.77;;;;;;;;;;5115089;28;20028;-70
2022/02/09 04:19:07;;;;;;;3.55;2.30;;;;;;;;;;5115388;28;20020;-70
2022/02/09 04:38:35;;;;;;;3.80;2.10;;;;;;;;;;5061905;27;20059;-70
2022/02/09 04:57:02;;;;;;;3.60;2.08;;;;;;;;;;5114448;28;20164;-70
2022/02/09 05:18:32;;;;;;;3.35;1.90;;;;;;;;;;5113018;28;20065;-70
2022/02/09 05:27:03;;;;;;;2.17;1.65;;;;;;;;;;5113586;28;20043;-70
2022/02/09 05:28:55;;;;;;;3.35;1.77;;;;;;;;;;5105939;27;20031;-70
2022/02/09 05:31:21;;;;;;;3.45;1.92;;;;;;;;;;5133854;27;20027;-70
2022/02/09 05:33:48;;;;;;;3.08;1.70;;;;;;;;;;5134220;27;20500;-70
2022/02/09 05:36:14;;;;;;;3.25;2.00;;;;;;;;;;5134173;27;20028;-70
2022/02/09 05:38:40;;;;;;;3.83;1.95;;;;;;;;;;5116437;27;20110;-70
2022/02/09 05:41:06;;;;;;;2.55;1.70;;;;;;;;;;5113559;28;20023;-70
2022/02/09 05:43:32;;;;;;;2.83;1.88;;;;;;;;;;5113114;28;20494;-70
2022/02/09 05:51:36;;;;;;;3.05;1.77;;;;;;;;;;5113120;28;20042;-70
2022/02/09 05:54:27;;;;;;;3.00;1.95;;;;;;;;;;5113500;28;20497;-70
2022/02/09 05:57:12;;;;;;;2.95;1.77;;;;;;;;;;5113170;28;20092;-70
2022/02/09 05:59:39;;;;;;;4.72;2.15;;;;;;;;;;5113310;28;20028;-70
2022/02/09 06:02:05;;;;;;;4.20;1.70;;;;;;;;;;5112912;28;20055;-70
2022/02/09 06:04:34;;;;;;;5.00;1.90;;;;;;;;;;5094982;28;20063;-70
2022/02/09 06:07:00;;;;;;;3.22;2.00;;;;;;;;;;5112600;28;20066;-70
2022/02/09 06:09:27;;;;;;;3.03;1.90;;;;;;;;;;5112628;28;20159;-70
2022/02/09 06:12:08;;;;;;;3.13;1.90;;;;;;;;;;5112538;28;20028;-70
2022/02/09 06:20:07;;;;;;;3.03;1.60;;;;;;;;;;5113119;28;20041;-70
2022/02/09 06:22:33;;;;;;;3.65;1.98;;;;;;;;;;5112964;28;20032;-71
2022/02/09 06:24:59;;;;;;;2.75;1.70;;;;;;;;;;5112968;28;20034;-70
2022/02/09 06:27:25;;;;;;;3.08;1.88;;;;;;;;;;5112700;28;20077;-70
2022/02/09 06:29:51;;;;;;;3.15;1.75;;;;;;;;;;5112046;28;20452;-70
2022/02/09 06:32:19;;;;;;;4.35;2.10;;;;;;;;;;5112361;28;20019;-70
2022/02/09 06:34:46;;;;;;;4.90;2.15;;;;;;;;;;5112601;28;20098;-70
2022/02/09 06:39:47;;;;;;;2.55;1.52;;;;;;;;;;5112666;28;20027;-70
2022/02/09 06:42:20;;;;;;;2.17;1.70;;;;;;;;;;5111502;28;20089;-70
2022/02/09 06:44:46;;;;;;;3.20;1.63;;;;;;;;;;5112731;28;20110;-70
2022/02/09 06:47:12;;;;;;;2.67;1.70;;;;;;;;;;5112416;28;20402;-70
2022/02/09 06:49:41;;;;;;;2.90;2.00;;;;;;;;;;5112772;28;20055;-70
2022/02/09 06:52:07;;;;;;;3.20;2.08;;;;;;;;;;5111904;28;20051;-70
2022/02/09 06:54:43;;;;;;;3.88;1.70;;;;;;;;;;5112468;28;20027;-70
2022/02/09 06:57:26;;;;;;;2.55;1.80;;;;;;;;;;5112481;28;20028;-70
2022/02/09 06:59:52;;;;;;;3.75;1.98;;;;;;;;;;5112180;28;20069;-70
2022/02/09 07:02:18;;;;;;;4.43;2.47;;;;;;;;;;5112157;28;20571;-70
2022/02/09 07:04:49;;;;;;;3.72;1.98;;;;;;;;;;5132307;28;20043;-70
2022/02/09 07:07:15;;;;;;;3.38;1.80;;;;;;;;;;5128115;28;20020;-70
2022/02/09 07:09:41;;;;;;;3.92;1.95;;;;;;;;;;5093721;28;20028;-70
2022/02/09 07:12:07;;;;;;;3.08;1.80;;;;;;;;;;5111704;28;20062;-70
2022/02/09 07:14:33;;;;;;;4.50;2.08;;;;;;;;;;5122236;28;20099;-70
2022/02/09 07:16:59;;;;;;;6.60;2.65;;;;;;;;;;5132546;28;20038;-70
2022/02/09 07:19:27;;;;;;;7.57;2.58;;;;;;;;;;5132487;28;20064;-70
2022/02/09 07:21:53;;;;;;;8.32;2.45;;;;;;;;;;5132316;28;20440;-70
2022/02/09 07:24:21;;;;;;;7.10;2.20;;;;;;;;;;5132506;28;20035;-70
2022/02/09 07:29:14;;;;;;;13.48;2.15;;;;;;;;;;5132345;28;20020;-70
2022/02/09 07:31:41;;;;;;;5.07;2.35;;;;;;;;;;5126210;28;20054;-71
2022/02/09 07:34:07;;;;;;;5.07;2.28;;;;;;;;;;5105022;28;20020;-70
2022/02/09 07:36:35;;;;;;;11.23;2.30;;;;;;;;;;5091598;28;20103;-70
2022/02/09 07:39:05;;;;;;;11.00;2.55;;;;;;;;;;5092466;28;20147;-70
2022/02/09 07:41:34;;;;;;;6.25;1.85;;;;;;;;;;5098077;28;20022;-70
2022/02/09 07:49:11;;;;;;;7.65;1.98;;;;;;;;;;5095987;27;20518;-70
2022/02/09 07:51:43;;;;;;;7.43;2.40;;;;;;;;;;5113261;28;20031;-70
2022/02/09 07:54:10;;;;;;;6.23;2.40;;;;;;;;;;5101333;28;20078;-70
2022/02/09 07:56:38;;;;;;;8.10;2.85;;;;;;;;;;5109359;28;20039;-70
2022/02/09 07:59:05;;;;;;;8.45;2.75;;;;;;;;;;5109246;27;20024;-72
2022/02/09 08:01:31;;;;;;;8.02;1.90;;;;;;;;;;5115151;27;20078;-73
2022/02/09 08:03:58;;;;;;;4.57;2.40;;;;;;;;;;5113035;27;20066;-73
2022/02/09 08:06:24;;;;;;;6.68;2.58;;;;;;;;;;5096714;27;20035;-73
2022/02/09 08:08:53;;;;;;;6.65;2.50;;;;;;;;;;5101174;28;20055;-73
2022/02/09 08:30:47;;;;;;;7.63;2.70;;;;;;;;;;5119276;27;20031;-74
2022/02/09 08:33:19;;;;;;;3.97;2.33;;;;;;;;;;5103483;27;20081;-74
2022/02/09 08:35:46;;;;;;;6.80;2.35;;;;;;;;;;5098243;27;20059;-73
2022/02/09 08:38:13;;;;;;;5.30;2.30;;;;;;;;;;5122760;27;20034;-74
2022/02/09 08:40:39;;;;;;;5.88;2.65;;;;;;;;;;5118135;27;20492;-74
2022/02/09 08:43:05;;;;;;;4.55;2.20;;;;;;;;;;5108435;27;20031;-72
2022/02/09 08:45:31;;;;;;;6.30;2.58;;;;;;;;;;5111224;27;20028;-77
2022/02/09 08:47:58;;;;;;;5.80;3.15;;;;;;;;;;5109890;27;20024;-70
2022/02/09 08:50:24;;;;;;;9.25;2.70;;;;;;;;;;5105486;27;20030;-72
2022/02/09 08:52:52;;;;;;;6.68;2.58;;;;;;;;;;5093587;27;20458;-71
2022/02/09 08:55:18;;;;;;;4.93;2.13;;;;;;;;;;5101915;27;20031;-72
2022/02/09 08:57:44;;;;;;;6.95;2.67;;;;;;;;;;5109693;27;20666;-72
2022/02/09 09:00:17;;;;;;;10.32;2.72;;;;;;;;;;5108546;27;20035;-71
2022/02/09 09:02:48;;;;;;;8.88;2.42;;;;;;;;;;5093461;27;20142;-71
2022/02/09 09:05:23;;;;;;;8.95;2.67;;;;;;;;;;5115955;27;20118;-71
2022/02/09 09:08:06;;;;;;;5.78;2.40;;;;;;;;;;5109757;27;20159;-71
2022/02/09 09:10:42;;;;;;;6.68;2.90;;;;;;;;;;5108193;27;20024;-71
2022/02/09 09:17:00;;;;;;;6.40;2.60;;;;;;;;;;5112468;27;20422;-71
2022/02/09 10:02:49;;;;;;;9.75;5.22;;;;;;;;;;5106589;27;20063;-71
2022/02/09 10:05:38;;;;;;;8.52;5.05;;;;;;;;;;5094594;28;20114;-70
2022/02/09 10:33:52;;;;;;;7.40;5.10;;;;;;;;;;5109174;27;20046;-72
2022/02/09 10:36:20;;;;;;;6.80;4.72;;;;;;;;;;5096187;28;20103;-71
2022/02/09 10:38:47;;;;;;;7.18;4.30;;;;;;;;;;5108496;27;20024;-69
2022/02/09 10:41:17;;;;;;;7.15;4.55;;;;;;;;;;5107346;27;20062;-69
2022/02/09 10:43:45;;;;;;;10.07;5.22;;;;;;;;;;5111892;27;20036;-69
2022/02/09 10:46:20;;;;;;;10.07;4.07;;;;;;;;;;5103595;28;20131;-69
2022/02/09 10:48:58;;;;;;;11.15;5.05;;;;;;;;;;5101665;28;20059;-72
2022/02/09 10:51:49;;;;;;;7.43;4.45;;;;;;;;;;5116266;27;20090;-75
2022/02/09 10:54:17;;;;;;;6.72;3.63;;;;;;;;;;5102161;28;20119;-76
2022/02/09 10:56:47;;;;;;;8.45;3.75;;;;;;;;;;5102408;28;20027;-75
2022/02/09 10:59:15;;;;;;;9.32;5.70;;;;;;;;;;5098864;28;20039;-75
2022/02/09 11:01:42;;;;;;;10.52;5.22;;;;;;;;;;5090925;28;20036;-73
2022/02/09 11:04:11;;;;;;;6.30;5.55;;;;;;;;;;5114710;28;20053;-74
2022/02/09 11:06:48;;;;;;;7.18;4.22;;;;;;;;;;5103248;28;20024;-74
2022/02/09 11:09:15;;;;;;;8.57;4.32;;;;;;;;;;5104213;28;20042;-74
2022/02/09 11:11:42;;;;;;;6.43;5.28;;;;;;;;;;5099785;28;20020;-73
2022/02/09 11:14:11;;;;;;;5.95;4.85;;;;;;;;;;5103732;28;20186;-74
2022/02/09 11:16:40;;;;;;;10.27;4.15;;;;;;;;;;5107868;28;20087;-72
2022/02/09 11:19:07;;;;;;;9.18;4.40;;;;;;;;;;5093537;28;20106;-72
2022/02/09 11:21:36;;;;;;;7.15;4.75;;;;;;;;;;5088686;28;20034;-71
2022/02/09 11:24:14;;;;;;;6.68;3.88;;;;;;;;;;5106331;28;20103;-74
2022/02/09 11:27:05;;;;;;;5.82;3.28;;;;;;;;;;5105928;28;20024;-76
2022/02/09 11:34:54;;;;;;;7.50;3.53;;;;;;;;;;5111335;27;20023;-77
2022/02/09 11:37:39;;;;;;;4.72;2.90;;;;;;;;;;5088101;28;20076;-71
2022/02/09 11:40:23;;;;;;;6.32;3.20;;;;;;;;;;5106207;28;20023;-70
2022/02/09 11:42:59;;;;;;;4.40;3.33;;;;;;;;;;5106158;28;20107;-70
2022/02/09 12:10:54;;;;;;;6.38;3.63;;;;;;;;;;5110844;27;20131;-71
2022/02/09 12:17:01;;;;;;;6.25;2.90;;;;;;;;;;5102476;27;20031;-70
2022/02/09 12:19:45;;;;;;;5.80;3.42;;;;;;;;;;5120387;27;20019;-70
2022/02/09 12:22:24;;;;;;;5.78;3.05;;;;;;;;;;5108182;28;20382;-70
2022/02/09 12:24:57;;;;;;;5.57;3.10;;;;;;;;;;5109088;28;20027;-71
2022/02/09 12:27:23;;;;;;;5.47;2.70;;;;;;;;;;5112470;27;20054;-71
2022/02/09 12:30:12;;;;;;;7.68;3.67;;;;;;;;;;5108948;27;20031;-71
2022/02/09 12:32:39;;;;;;;11.35;3.72;;;;;;;;;;5124587;27;20474;-71
2022/02/09 12:35:06;;;;;;;6.95;3.40;;;;;;;;;;5106027;28;20099;-71
2022/02/09 12:37:33;;;;;;;8.13;3.00;;;;;;;;;;5118499;27;20546;-71
2022/02/09 12:40:01;;;;;;;7.22;3.10;;;;;;;;;;5125632;27;20455;-71
2022/02/09 12:42:29;;;;;;;4.15;2.47;;;;;;;;;;5112578;27;20168;-71
2022/02/09 12:45:07;;;;;;;5.97;2.90;;;;;;;;;;5105347;28;20019;-71
2022/02/09 12:47:37;;;;;;;5.45;3.10;;;;;;;;;;5105734;28;20092;-71
2022/02/09 12:50:06;;;;;;;5.63;2.80;;;;;;;;;;5103339;28;20646;-71
2022/02/09 12:52:35;;;;;;;7.93;3.08;;;;;;;;;;5107130;27;20031;-70
2022/02/09 12:55:04;;;;;;;6.38;3.20;;;;;;;;;;5106310;27;20516;-70
2022/02/09 12:57:41;;;;;;;6.50;3.08;;;;;;;;;;5104190;27;20035;-72
2022/02/09 13:00:09;;;;;;;5.97;2.97;;;;;;;;;;5105606;28;20402;-71
2022/02/09 13:02:44;;;;;;;6.78;2.90;;;;;;;;;;5105686;28;20683;-71
2022/02/09 13:05:10;;;;;;;5.75;2.95;;;;;;;;;;5090751;28;20028;-71
2022/02/09 13:07:41;;;;;;;5.40;3.25;;;;;;;;;;5092036;28;20127;-77
2022/02/09 13:10:08;;;;;;;8.43;3.00;;;;;;;;;;5115077;27;20034;-75
2022/02/09 13:12:41;;;;;;;7.00;2.80;;;;;;;;;;5114727;27;20053;-75
2022/02/09 13:15:23;;;;;;;6.72;3.00;;;;;;;;;;5110493;27;20024;-75
2022/02/09 13:18:12;;;;;;;7.25;3.03;;;;;;;;;;5086894;28;20050;-74
2022/02/09 14:02:50;;;;;;;;;;;;;;;;;;5103875;28;20028;-71
2022/02/09 14:11:05;;;;;;;6.95;2.90;;;;;;;;;;5101517;28;20027;-75
2022/02/09 14:56:21;;;;;;;7.82;2.90;;;;;;;;;;5112530;27;20027;-74
2022/02/09 14:58:55;;;;;;;5.70;2.83;;;;;;;;;;5117352;27;20030;-74
2022/02/09 15:01:33;;;;;;;7.78;2.55;;;;;;;;;;5122929;27;20043;-74
2022/02/09 15:12:04;;;;;;;5.18;2.30;;;;;;;;;;5116280;28;20031;-75
2022/02/09 15:14:48;;;;;;;6.07;2.20;;;;;;;;;;5125113;28;20019;-73
2022/02/09 15:22:34;;;;;;;5.85;2.40;;;;;;;;;;5099775;28;20059;-74
2022/02/09 15:25:00;;;;;;;5.18;3.05;;;;;;;;;;5098555;28;20051;-75
2022/02/09 15:27:26;;;;;;;7.15;2.30;;;;;;;;;;5103356;28;20023;-74
2022/02/09 15:29:53;;;;;;;6.13;2.83;;;;;;;;;;5103203;28;20095;-75
2022/02/09 15:35:02;;;;;;;5.32;2.53;;;;;;;;;;5103805;28;20684;-73
2022/02/09 15:40:06;;;;;;;8.73;2.72;;;;;;;;;;5124400;28;20556;-77
2022/02/09 15:59:37;;;;;;;7.45;2.78;;;;;;;;;;5010155;28;20045;-75
2022/02/09 16:10:00;;;;;;;5.97;2.67;;;;;;;;;;5104964;28;20036;-76
2022/02/09 16:44:49;;;;;;;8.15;2.45;;;;;;;;;;5113652;28;20456;-71
2022/02/09 16:50:03;;;;;;;4.05;2.50;;;;;;;;;;5114435;28;20027;-71
2022/02/09 16:52:41;;;;;;;7.45;2.95;;;;;;;;;;5099410;28;20401;-71
2022/02/09 17:11:12;;;;;;;6.05;2.70;;;;;;;;;;5114626;28;20508;-71
2022/02/09 17:19:35;;;;;;;6.22;3.08;;;;;;;;;;5113042;28;20074;-71
2022/02/09 17:22:01;;;;;;;5.78;2.80;;;;;;;;;;5113623;28;20405;-73
2022/02/09 17:24:30;;;;;;;8.45;3.72;;;;;;;;;;5114640;28;20032;-73
2022/02/09 17:26:58;;;;;;;5.07;2.72;;;;;;;;;;5114308;28;20023;-73
2022/02/09 17:29:36;;;;;;;5.72;3.47;;;;;;;;;;5114080;28;20054;-73
2022/02/09 17:32:10;;;;;;;5.05;2.83;;;;;;;;;;5113520;28;20028;-73
2022/02/09 17:53:50;;;;;;;9.73;3.97;;;;;;;;;;5113432;28;20444;-73
2022/02/09 17:56:23;;;;;;;9.27;3.22;;;;;;;;;;5113496;28;20027;-73
2022/02/09 17:58:51;;;;;;;6.97;3.15;;;;;;;;;;5113260;28;20501;-73
2022/02/09 18:01:19;;;;;;;12.60;6.45;;;;;;;;;;5113002;28;20036;-73
2022/02/09 18:03:45;;;;;;;13.48;6.20;;;;;;;;;;5113046;28;20096;-73
2022/02/09 18:06:22;;;;;;;8.45;3.90;;;;;;;;;;5112906;28;20038;-73
2022/02/09 18:11:46;;;;;;;8.32;4.13;;;;;;;;;;5112675;28;20027;-73
2022/02/09 18:34:05;;;;;;;8.93;4.20;;;;;;;;;;5112929;28;20032;-73
2022/02/09 18:44:17;;;;;;;8.10;3.75;;;;;;;;;;5112822;28;20073;-72
2022/02/09 18:47:14;;;;;;;6.60;3.28;;;;;;;;;;5112189;28;20107;-72
2022/02/09 19:01:12;;;;;;;8.98;3.75;;;;;;;;;;5112637;28;20070;-73
2022/02/09 19:03:35;;;;;;;7.82;3.30;;;;;;;;;;5111571;28;20502;-73
2022/02/09 19:06:05;;;;;;;7.88;3.33;;;;;;;;;;5112538;28;20032;-73
2022/02/09 19:14:26;;;;;;;7.05;3.55;;;;;;;;;;5112385;28;20448;-73
2022/02/09 19:19:40;;;;;;;8.48;3.63;;;;;;;;;;5112536;28;20032;-73
2022/02/09 19:41:17;;;;;;;11.70;5.32;;;;;;;;;;5116331;28;20038;-73
2022/02/09 19:57:37;;;;;;;14.25;6.28;;;;;;;;;;5050524;28;20025;-73
2022/02/09 20:00:07;;;;;;;17.15;8.15;;;;;;;;;;5095430;28;20040;-73
2022/02/09 20:02:33;;;;;;;17.40;7.18;;;;;;;;;;5095551;28;20073;-73
2022/02/09 20:05:02;;;;;;;18.67;7.15;;;;;;;;;;5095265;28;20028;-73
2022/02/09 20:07:28;;;;;;;15.00;7.15;;;;;;;;;;5101871;28;20047;-73
2022/02/09 20:09:54;;;;;;;16.10;7.53;;;;;;;;;;5115407;28;20034;-73
2022/02/09 20:12:20;;;;;;;13.35;6.82;;;;;;;;;;5097085;28;20440;-73
2022/02/09 20:14:48;;;;;;;15.82;6.90;;;;;;;;;;5115526;28;20019;-73
2022/02/09 20:17:15;;;;;;;13.07;6.78;;;;;;;;;;5115559;28;20044;-73
2022/02/09 20:19:47;;;;;;;16.30;7.18;;;;;;;;;;5115341;28;20115;-73
2022/02/09 20:22:16;;;;;;;17.00;7.85;;;;;;;;;;5114971;28;20027;-73
2022/02/09 20:24:42;;;;;;;16.00;7.55;;;;;;;;;;5097119;28;20040;-73
2022/02/09 20:27:13;;;;;;;15.98;7.47;;;;;;;;;;5115721;28;20032;-73
2022/02/09 20:29:39;;;;;;;15.23;7.63;;;;;;;;;;5096861;28;20455;-73
2022/02/09 20:32:41;;;;;;;16.17;7.85;;;;;;;;;;5114737;28;20043;-73
2022/02/09 20:35:02;;;;;;;16.52;7.72;;;;;;;;;;5110692;28;20024;-73
2022/02/09 20:37:30;;;;;;;18.30;8.13;;;;;;;;;;5115167;28;20016;-73
2022/02/09 20:40:14;;;;;;;15.48;7.45;;;;;;;;;;5114960;28;20057;-73
2022/02/09 20:42:49;;;;;;;14.73;7.03;;;;;;;;;;5114594;28;20435;-73
2022/02/09 20:45:24;;;;;;;18.48;8.32;;;;;;;;;;5114809;28;20409;-73
2022/02/09 20:47:57;;;;;;;15.13;7.40;;;;;;;;;;5114455;28;20053;-73
2022/02/09 20:50:23;;;;;;;15.35;7.18;;;;;;;;;;5114644;28;20076;-73
2022/02/09 20:52:52;;;;;;;17.90;8.13;;;;;;;;;;5114695;28;20035;-73
2022/02/09 20:55:18;;;;;;;19.63;8.80;;;;;;;;;;5115109;28;20031;-73
2022/02/09 20:57:44;;;;;;;15.40;7.82;;;;;;;;;;5114848;28;20482;-73
2022/02/09 21:00:18;;;;;;;16.60;8.05;;;;;;;;;;5114528;28;20027;-73
2022/02/09 21:03:28;;;;;;;16.52;7.97;;;;;;;;;;5114518;28;20438;-73
2022/02/09 21:11:04;;;;;;;15.98;7.60;;;;;;;;;;5114394;28;20032;-73
2022/02/09 21:43:27;;;;;;;14.00;6.75;;;;;;;;;;5113694;28;20521;-73
2022/02/09 21:45:35;;;;;;;13.15;6.47;;;;;;;;;;5113575;28;20571;-73
2022/02/09 21:56:19;;;;;;;13.90;6.65;;;;;;;;;;5114109;28;20024;-73
2022/02/09 21:58:40;;;;;;;15.05;6.35;;;;;;;;;;5108913;28;20031;-73
2022/02/09 22:20:35;;;;;;;12.43;6.00;;;;;;;;;;5092868;28;20043;-73
2022/02/09 22:29:44;;;;;;;12.20;6.07;;;;;;;;;;5089322;28;20073;-73
2022/02/09 22:45:37;;;;;;;12.13;5.38;;;;;;;;;;5092793;28;20032;-73
2022/02/09 22:56:05;;;;;;;12.05;5.97;;;;;;;;;;5092119;28;20082;-73
2022/02/09 22:58:32;;;;;;;11.48;5.82;;;;;;;;;;5092426;28;20024;-73
2022/02/09 23:01:13;;;;;;;12.30;5.68;;;;;;;;;;5090934;28;20115;-73
2022/02/09 23:04:11;;;;;;;11.13;5.10;;;;;;;;;;5102688;28;20127;-73
2022/02/09 23:06:45;;;;;;;11.40;5.07;;;;;;;;;;5112371;28;20027;-73
